Time;durP1;ratioP1;P1;durP2;ratioP2;P2;SDS_P1;SDS_P2;PMS_P1;PMS_P2;Temp;Humidity;BMP_temperature;BMP_pressure;BME280_temperature;BME280_humidity;BME280_pressure;Samples;Min_cycle;Max_cycle;Signal;HPM_P1;HPM_P2
2023/03/10 00:02:22;;;;;;;42.27;22.37;;;0.80;99.90;;;;;;5057191;28;20048;-22
2023/03/10 00:04:54;;;;;;;50.63;24.57;;;0.80;99.90;;;;;;5073166;28;20041;-21
2023/03/10 00:07:20;;;;;;;52.17;24.70;;;1.00;99.90;;;;;;5073967;28;20048;-21
2023/03/10 00:09:46;;;;;;;56.80;26.47;;;1.00;99.90;;;;;;5075124;28;20142;-22
2023/03/10 00:12:12;;;;;;;57.40;26.33;;;1.10;99.90;;;;;;5067697;28;20483;-21
2023/03/10 00:14:38;;;;;;;65.97;29.13;;;0.90;99.90;;;;;;5056255;28;20065;-21
2023/03/10 00:17:05;;;;;;;59.93;28.03;;;1.10;99.90;;;;;;5059480;28;20621;-21
2023/03/10 00:19:31;;;;;;;59.87;30.33;;;1.10;99.90;;;;;;5064362;28;20057;-21
2023/03/10 00:21:57;;;;;;;59.00;27.97;;;0.90;99.90;;;;;;5060341;28;20049;-21
2023/03/10 00:24:23;;;;;;;54.43;27.17;;;1.00;99.90;;;;;;5055751;28;20045;-21
2023/03/10 00:26:49;;;;;;;53.10;26.50;;;0.90;99.90;;;;;;5054801;28;20049;-21
2023/03/10 00:29:15;;;;;;;55.13;28.67;;;1.00;99.90;;;;;;5054485;28;20040;-21
2023/03/10 00:31:41;;;;;;;55.57;27.90;;;1.00;99.90;;;;;;5053350;28;20044;-21
2023/03/10 00:34:07;;;;;;;53.30;28.23;;;0.90;99.90;;;;;;5054304;28;20052;-21
2023/03/10 00:36:33;;;;;;;53.97;24.83;;;1.00;99.90;;;;;;5054885;28;20479;-21
2023/03/10 00:39:00;;;;;;;57.80;28.73;;;1.00;99.90;;;;;;5053376;28;20057;-21
2023/03/10 00:41:31;;;;;;;49.20;25.50;;;1.00;99.90;;;;;;5036781;28;20110;-21
2023/03/10 00:43:57;;;;;;;49.23;27.20;;;1.10;99.90;;;;;;5053659;28;20094;-21
2023/03/10 00:46:24;;;;;;;45.63;24.50;;;1.10;99.90;;;;;;5054243;28;20056;-21
2023/03/10 00:48:50;;;;;;;51.00;27.13;;;0.90;99.90;;;;;;5054704;28;20396;-21
2023/03/10 00:51:17;;;;;;;48.20;25.87;;;1.00;99.90;;;;;;5052978;28;20101;-21
2023/03/10 00:53:43;;;;;;;44.33;24.00;;;1.00;99.90;;;;;;5053936;28;20045;-21
2023/03/10 00:56:22;;;;;;;46.13;25.17;;;1.00;99.90;;;;;;5054724;28;20045;-21
2023/03/10 00:58:57;;;;;;;46.60;25.53;;;1.10;99.90;;;;;;5054875;28;20191;-21
2023/03/10 01:01:26;;;;;;;46.83;25.93;;;1.00;99.90;;;;;;5052715;28;20080;-21
2023/03/10 01:03:54;;;;;;;46.07;23.23;;;1.00;99.90;;;;;;5036395;28;20036;-21
2023/03/10 01:06:20;;;;;;;44.50;22.97;;;1.20;99.90;;;;;;5053719;28;20045;-21
2023/03/10 01:08:46;;;;;;;43.30;22.07;;;1.10;99.90;;;;;;5053752;28;20052;-21
2023/03/10 01:11:18;;;;;;;36.63;19.77;;;1.00;99.90;;;;;;5053786;28;20049;-21
2023/03/10 01:13:45;;;;;;;35.03;18.87;;;1.00;99.90;;;;;;5053665;28;20076;-22
2023/03/10 01:16:12;;;;;;;34.67;18.97;;;1.20;99.90;;;;;;5052531;28;20053;-21
2023/03/10 01:18:38;;;;;;;25.30;15.23;;;1.20;99.90;;;;;;5053457;28;20091;-21
2023/03/10 01:21:04;;;;;;;33.23;18.43;;;1.10;99.90;;;;;;5052534;28;20052;-21
2023/03/10 01:23:30;;;;;;;31.70;17.60;;;1.10;99.90;;;;;;5053647;28;20051;-21
2023/03/10 01:25:56;;;;;;;24.67;13.80;;;1.20;99.90;;;;;;5052422;28;20037;-21
2023/03/10 01:28:21;;;;;;;33.47;18.17;;;1.20;99.90;;;;;;5052387;28;20054;-22
2023/03/10 01:30:47;;;;;;;29.43;16.00;;;1.10;99.90;;;;;;5052640;28;20084;-22
2023/03/10 01:33:14;;;;;;;28.83;16.00;;;1.20;99.90;;;;;;5052263;28;20056;-22
2023/03/10 01:35:40;;;;;;;29.33;16.70;;;1.40;99.90;;;;;;5053037;28;20425;-22
2023/03/10 01:38:07;;;;;;;30.33;17.33;;;1.20;99.90;;;;;;5053539;28;20056;-22
2023/03/10 01:40:34;;;;;;;29.23;17.00;;;1.10;99.90;;;;;;5052789;28;20048;-21
2023/03/10 01:43:15;;;;;;;27.07;16.30;;;1.10;99.90;;;;;;5053172;28;20487;-22
2023/03/10 01:45:43;;;;;;;28.53;17.30;;;1.20;99.90;;;;;;5056235;28;20060;-21
2023/03/10 01:48:09;;;;;;;28.43;16.50;;;1.10;99.90;;;;;;5057564;28;20495;-22
2023/03/10 01:50:35;;;;;;;27.10;15.00;;;1.20;99.90;;;;;;5056915;28;20048;-21
2023/03/10 01:53:01;;;;;;;28.53;15.63;;;1.10;99.90;;;;;;5058019;28;20049;-21
2023/03/10 01:55:32;;;;;;;27.80;16.60;;;1.20;99.90;;;;;;5057028;28;20064;-22
2023/03/10 01:57:58;;;;;;;29.13;15.77;;;1.20;99.90;;;;;;5057954;28;20045;-21
2023/03/10 02:00:27;;;;;;;29.47;16.60;;;1.10;99.90;;;;;;5057599;28;20036;-21
2023/03/10 02:02:55;;;;;;;31.73;17.37;;;1.10;99.90;;;;;;5057344;28;20049;-21
2023/03/10 02:05:21;;;;;;;28.27;16.07;;;1.20;99.90;;;;;;5057277;28;20395;-22
2023/03/10 02:07:47;;;;;;;27.43;15.83;;;1.20;99.90;;;;;;5056754;28;20136;-21
2023/03/10 02:10:14;;;;;;;28.47;16.20;;;1.20;99.90;;;;;;5057170;28;20100;-22
2023/03/10 02:12:42;;;;;;;22.87;13.50;;;1.10;99.90;;;;;;5057086;28;20048;-21
2023/03/10 02:15:09;;;;;;;30.07;16.47;;;1.10;99.90;;;;;;5055856;28;20042;-22
2023/03/10 02:17:36;;;;;;;26.50;15.57;;;1.10;99.90;;;;;;5039215;28;20047;-22
2023/03/10 02:20:19;;;;;;;29.53;16.53;;;1.10;99.90;;;;;;5055422;28;20048;-21
2023/03/10 02:22:45;;;;;;;28.03;16.27;;;1.10;99.90;;;;;;5057578;28;20057;-21
2023/03/10 02:25:29;;;;;;;28.20;16.57;;;1.10;99.90;;;;;;5056881;28;20282;-22
2023/03/10 02:27:55;;;;;;;30.23;16.83;;;1.00;99.90;;;;;;5057150;28;20110;-22
2023/03/10 02:30:45;;;;;;;22.10;12.87;;;1.10;99.90;;;;;;5056787;28;20503;-21
2023/03/10 02:33:18;;;;;;;28.77;16.73;;;1.00;99.90;;;;;;5056772;28;20048;-21
2023/03/10 02:35:44;;;;;;;;;;;1.00;99.90;;;;;;5057663;28;20360;-21
2023/03/10 02:38:10;;;;;;;26.40;15.93;;;0.80;99.90;;;;;;5056611;28;19973;-22
2023/03/10 02:40:39;;;;;;;26.87;15.73;;;0.80;99.90;;;;;;5056540;28;20041;-23
2023/03/10 02:43:26;;;;;;;27.50;15.53;;;0.70;99.90;;;;;;5056530;28;20095;-22
2023/03/10 02:45:57;;;;;;;27.33;15.13;;;0.80;99.90;;;;;;5056526;28;20041;-23
2023/03/10 02:48:30;;;;;;;29.13;15.20;;;0.80;99.90;;;;;;5056505;28;20095;-23
2023/03/10 02:50:57;;;;;;;28.10;15.93;;;0.70;99.90;;;;;;5055461;28;20049;-23
2023/03/10 02:53:26;;;;;;;27.10;14.63;;;0.80;99.90;;;;;;5056350;28;20053;-23
2023/03/10 02:55:53;;;;;;;30.00;16.40;;;0.70;99.90;;;;;;5055497;28;20425;-23
2023/03/10 02:58:21;;;;;;;30.67;16.87;;;0.70;99.90;;;;;;5056240;28;20044;-23
2023/03/10 03:00:48;;;;;;;31.97;18.13;;;0.70;99.90;;;;;;5038788;28;20037;-23
2023/03/10 03:03:17;;;;;;;31.67;17.17;;;0.80;99.90;;;;;;5039420;28;20052;-24
2023/03/10 03:05:45;;;;;;;28.30;15.50;;;0.90;99.90;;;;;;5056122;28;20128;-24
2023/03/10 03:08:11;;;;;;;33.93;18.20;;;0.80;99.90;;;;;;5055022;28;20041;-24
2023/03/10 03:10:37;;;;;;;35.83;19.57;;;0.70;99.90;;;;;;5055990;28;20491;-25
2023/03/10 03:13:04;;;;;;;36.63;19.23;;;1.10;99.90;;;;;;5055983;28;20597;-25
2023/03/10 03:15:30;;;;;;;36.70;20.10;;;0.90;99.90;;;;;;5055565;28;20503;-25
2023/03/10 03:17:57;;;;;;;30.33;16.43;;;1.00;99.90;;;;;;5055196;28;20045;-26
2023/03/10 03:20:24;;;;;;;38.50;21.47;;;0.70;99.90;;;;;;5054235;28;20132;-25
2023/03/10 03:22:50;;;;;;;40.93;22.57;;;0.80;99.90;;;;;;5054651;28;20127;-25
2023/03/10 03:25:19;;;;;;;41.87;22.67;;;0.80;99.90;;;;;;5038070;28;20045;-26
2023/03/10 03:27:45;;;;;;;42.60;21.70;;;0.80;99.90;;;;;;5056508;28;20077;-26
2023/03/10 03:30:18;;;;;;;39.53;21.73;;;0.80;99.90;;;;;;5055006;28;20044;-25
2023/03/10 03:32:44;;;;;;;44.00;23.17;;;0.70;99.90;;;;;;5055715;28;20601;-25
2023/03/10 03:35:13;;;;;;;39.77;22.03;;;0.60;99.90;;;;;;5055483;28;20116;-26
2023/03/10 03:37:38;;;;;;;42.50;22.63;;;0.80;99.90;;;;;;5054574;28;20076;-26
2023/03/10 03:40:11;;;;;;;39.87;20.77;;;0.60;99.90;;;;;;5054502;28;20103;-26
2023/03/10 03:42:45;;;;;;;43.83;22.90;;;0.70;99.90;;;;;;5055858;28;20106;-26
2023/03/10 03:45:13;;;;;;;45.53;22.27;;;0.80;99.90;;;;;;5055426;28;20128;-26
2023/03/10 03:47:39;;;;;;;43.23;22.80;;;0.80;99.90;;;;;;5054396;28;20086;-27
2023/03/10 03:50:07;;;;;;;34.33;18.17;;;0.80;99.90;;;;;;5054962;28;20517;-27
2023/03/10 03:52:33;;;;;;;40.77;21.83;;;0.60;99.90;;;;;;5055277;28;20124;-27
2023/03/10 03:54:59;;;;;;;43.37;22.07;;;0.60;99.90;;;;;;5054738;28;20041;-28
2023/03/10 03:57:25;;;;;;;43.67;22.60;;;1.10;99.90;;;;;;5053647;28;20098;-29
2023/03/10 03:59:51;;;;;;;42.77;22.23;;;0.80;99.90;;;;;;5055126;28;20057;-28
2023/03/10 04:02:18;;;;;;;50.27;25.00;;;0.80;99.90;;;;;;5055040;28;20045;-29
2023/03/10 04:04:43;;;;;;;46.50;23.53;;;0.50;99.90;;;;;;5054990;28;20049;-29
2023/03/10 04:07:10;;;;;;;41.97;23.37;;;0.50;99.90;;;;;;5054793;28;20098;-29
2023/03/10 04:09:38;;;;;;;48.83;25.67;;;0.40;99.90;;;;;;5055197;28;20048;-29
2023/03/10 04:12:05;;;;;;;41.20;20.50;;;0.60;99.90;;;;;;5055445;28;20505;-29
2023/03/10 04:14:31;;;;;;;49.00;24.20;;;0.60;99.90;;;;;;5053556;28;20483;-29
2023/03/10 04:16:57;;;;;;;38.50;19.37;;;0.70;99.90;;;;;;5054780;28;20110;-31
2023/03/10 04:19:22;;;;;;;43.63;23.23;;;0.50;99.90;;;;;;5054699;28;20156;-30
2023/03/10 04:21:48;;;;;;;37.50;18.77;;;0.30;99.90;;;;;;5054676;28;20056;-32
2023/03/10 04:24:14;;;;;;;50.67;24.03;;;0.40;99.90;;;;;;5054695;28;20514;-30
2023/03/10 04:26:40;;;;;;;45.13;22.90;;;0.30;99.90;;;;;;5054648;28;20483;-31
2023/03/10 04:29:06;;;;;;;35.67;19.20;;;0.20;99.90;;;;;;5054578;28;20170;-32
2023/03/10 04:31:31;;;;;;;41.30;20.53;;;0.20;99.90;;;;;;5054532;28;20466;-30
2023/03/10 04:33:57;;;;;;;46.40;23.30;;;0.40;99.90;;;;;;5053722;28;20471;-31
2023/03/10 04:36:23;;;;;;;55.00;25.47;;;0.50;99.90;;;;;;5036620;28;20057;-32
2023/03/10 04:38:49;;;;;;;56.20;26.20;;;0.30;99.90;;;;;;5054375;28;20049;-32
2023/03/10 04:41:16;;;;;;;54.27;23.63;;;0.10;99.90;;;;;;5054928;28;20051;-32
2023/03/10 04:43:42;;;;;;;65.87;28.83;;;0.20;99.90;;;;;;5053102;28;20051;-33
2023/03/10 04:46:08;;;;;;;67.50;28.17;;;0.90;99.90;;;;;;5054195;28;20045;-32
2023/03/10 04:48:34;;;;;;;78.37;29.57;;;0.10;99.90;;;;;;5054192;28;20056;-34
2023/03/10 04:51:02;;;;;;;69.87;27.83;;;0.10;99.90;;;;;;5054168;28;20123;-35
2023/03/10 04:53:29;;;;;;;88.07;32.70;;;0.40;99.90;;;;;;5054099;28;20044;-38
2023/03/10 04:55:54;;;;;;;93.50;33.53;;;0.40;99.90;;;;;;5053965;28;20090;-33
2023/03/10 04:58:22;;;;;;;77.13;30.50;;;0.20;99.90;;;;;;5054016;28;20049;-33
2023/03/10 05:00:48;;;;;;;105.73;37.83;;;0.50;99.90;;;;;;5053143;28;20088;-34
2023/03/10 05:03:14;;;;;;;110.10;37.10;;;0.30;99.90;;;;;;5036278;28;20084;-33
2023/03/10 05:05:40;;;;;;;130.70;41.03;;;0.20;99.90;;;;;;5053182;28;20593;-37
2023/03/10 05:08:11;;;;;;;115.50;39.07;;;0.40;99.90;;;;;;5053246;28;20064;-34
2023/03/10 05:10:43;;;;;;;129.33;42.53;;;0.50;99.90;;;;;;5052393;28;20376;-33
2023/03/10 05:13:12;;;;;;;124.43;43.83;;;0.40;99.90;;;;;;5053772;28;20402;-35
2023/03/10 05:15:42;;;;;;;134.00;42.73;;;0.10;99.90;;;;;;5054232;28;20047;-33
2023/03/10 05:18:09;;;;;;;126.13;40.27;;;0.30;99.90;;;;;;5053591;28;20048;-33
2023/03/10 05:20:35;;;;;;;130.57;42.83;;;0.10;99.90;;;;;;5053230;28;20111;-34
2023/03/10 05:23:01;;;;;;;143.57;43.77;;;0.60;99.90;;;;;;5035551;28;20513;-40
2023/03/10 05:25:27;;;;;;;124.87;41.67;;;0.30;99.90;;;;;;5053002;28;20037;-35
2023/03/10 05:27:53;;;;;;;143.43;44.63;;;0.20;99.90;;;;;;5053538;28;20049;-40
2023/03/10 05:30:19;;;;;;;130.37;43.67;;;0.20;99.90;;;;;;5052344;28;20499;-35
2023/03/10 05:32:45;;;;;;;122.90;41.77;;;0.60;99.90;;;;;;5053519;28;20041;-33
2023/03/10 05:35:11;;;;;;;119.07;40.10;;;0.00;99.90;;;;;;5053412;28;20040;-35
2023/03/10 05:37:43;;;;;;;109.53;40.17;;;0.00;99.90;;;;;;5054050;28;20053;-33
2023/03/10 05:40:13;;;;;;;129.00;41.20;;;0.10;99.90;;;;;;5053811;28;20045;-38
2023/03/10 05:42:39;;;;;;;121.03;40.47;;;0.10;99.90;;;;;;5053453;28;20045;-40
2023/03/10 05:45:06;;;;;;;129.47;41.13;;;0.00;99.90;;;;;;5053459;28;20040;-40
2023/03/10 05:47:32;;;;;;;113.80;37.63;;;0.20;99.90;;;;;;5053379;28;20494;-38
2023/03/10 05:49:59;;;;;;;105.97;36.17;;;0.10;99.90;;;;;;5053692;28;20052;-40
2023/03/10 05:52:26;;;;;;;107.17;35.80;;;0.10;99.90;;;;;;5053357;28;20124;-39
2023/03/10 05:54:52;;;;;;;88.90;32.83;;;0.10;99.90;;;;;;5052210;28;20041;-40
2023/03/10 05:57:18;;;;;;;94.93;33.50;;;-0.10;99.90;;;;;;5053337;28;20110;-40
2023/03/10 05:59:46;;;;;;;102.60;36.13;;;0.00;99.90;;;;;;5053356;28;20052;-38
2023/03/10 06:02:12;;;;;;;88.50;29.67;;;0.50;99.90;;;;;;5052134;28;20080;-34
2023/03/10 06:04:38;;;;;;;86.20;29.93;;;0.10;99.90;;;;;;5053271;28;20044;-38
2023/03/10 06:07:05;;;;;;;76.77;27.77;;;0.00;99.90;;;;;;5053141;28;20134;-34
2023/03/10 06:09:31;;;;;;;92.03;31.53;;;0.20;99.90;;;;;;5053524;28;20048;-32
2023/03/10 06:11:58;;;;;;;63.23;25.60;;;0.00;99.90;;;;;;5053786;28;20063;-33
2023/03/10 06:14:25;;;;;;;89.60;30.13;;;1.50;99.90;;;;;;5053675;28;20045;-31
2023/03/10 06:16:53;;;;;;;81.90;29.00;;;-0.10;99.90;;;;;;5053141;28;20049;-30
2023/03/10 06:19:23;;;;;;;68.80;25.83;;;0.30;99.90;;;;;;5053020;28;20063;-30
2023/03/10 06:21:52;;;;;;;67.68;24.80;;;-0.20;99.90;;;;;;5053054;28;20059;-29
2023/03/10 06:24:18;;;;;;;83.43;28.60;;;0.30;99.90;;;;;;5052858;28;20132;-30
2023/03/10 06:26:43;;;;;;;67.10;25.17;;;-0.30;99.90;;;;;;5036167;28;20049;-28
2023/03/10 06:29:09;;;;;;;60.30;23.83;;;0.40;99.90;;;;;;5053369;28;20063;-27
2023/03/10 06:31:35;;;;;;;72.97;26.83;;;0.40;99.90;;;;;;5056152;28;20084;-26
2023/03/10 06:34:01;;;;;;;78.67;26.07;;;-0.30;99.90;;;;;;5039391;28;20422;-27
2023/03/10 06:36:30;;;;;;;73.37;25.47;;;-0.30;99.90;;;;;;5057106;28;20368;-27
2023/03/10 06:38:57;;;;;;;102.70;30.87;;;0.20;99.90;;;;;;5056479;28;20048;-26
2023/03/10 06:41:23;;;;;;;73.60;25.63;;;0.30;99.90;;;;;;5056374;28;20546;-26
2023/03/10 06:43:49;;;;;;;104.77;32.50;;;-0.30;99.90;;;;;;5039637;28;20368;-26
2023/03/10 06:46:16;;;;;;;105.33;31.47;;;-0.30;99.90;;;;;;5055809;28;20048;-23
2023/03/10 06:48:42;;;;;;;85.93;26.10;;;-0.30;99.90;;;;;;5056576;28;20420;-23
2023/03/10 06:51:12;;;;;;;86.57;27.27;;;0.40;99.90;;;;;;5056349;28;20372;-22
2023/03/10 06:53:37;;;;;;;66.60;24.97;;;-0.20;99.90;;;;;;5056031;28;20407;-21
2023/03/10 06:56:06;;;;;;;88.10;29.13;;;0.50;99.90;;;;;;5056450;28;20057;-20
2023/03/10 06:58:34;;;;;;;99.43;30.37;;;-0.10;99.90;;;;;;5056984;28;20053;-19
2023/03/10 07:01:00;;;;;;;95.87;31.70;;;0.30;99.90;;;;;;5056645;28;20486;-19
2023/03/10 07:03:27;;;;;;;96.93;29.17;;;0.30;99.90;;;;;;5056908;28;20049;-19
2023/03/10 07:05:54;;;;;;;122.07;33.30;;;0.50;99.90;;;;;;5056139;28;20052;-19
2023/03/10 07:08:20;;;;;;;94.10;29.87;;;0.50;99.90;;;;;;5055476;28;20124;-19
2023/03/10 07:10:47;;;;;;;107.50;30.83;;;0.10;99.90;;;;;;5038587;28;20044;-19
2023/03/10 07:13:14;;;;;;;141.23;33.57;;;0.10;99.90;;;;;;5056023;28;20395;-18
2023/03/10 07:15:41;;;;;;;121.03;33.57;;;-0.20;99.90;;;;;;5054698;28;20041;-18
2023/03/10 07:18:07;;;;;;;114.00;32.27;;;0.10;99.90;;;;;;5055920;28;20045;-18
2023/03/10 07:20:33;;;;;;;119.57;32.13;;;-0.20;99.90;;;;;;5037927;28;20076;-18
2023/03/10 07:22:59;;;;;;;110.37;31.27;;;-0.10;99.90;;;;;;5055816;28;20503;-18
2023/03/10 07:25:25;;;;;;;112.27;29.83;;;-0.10;99.90;;;;;;5055771;28;20119;-18
2023/03/10 07:27:51;;;;;;;70.90;23.93;;;0.70;99.90;;;;;;5055540;28;20045;-18
2023/03/10 07:30:17;;;;;;;86.57;27.60;;;-0.20;99.90;;;;;;5038149;28;20131;-18
2023/03/10 07:32:43;;;;;;;117.60;31.27;;;-0.10;99.90;;;;;;5056190;28;20436;-19
2023/03/10 07:35:09;;;;;;;72.27;25.47;;;0.80;99.90;;;;;;5055572;28;20056;-19
2023/03/10 07:37:39;;;;;;;92.00;28.73;;;-0.20;99.90;;;;;;5054861;28;20041;-19
2023/03/10 07:40:07;;;;;;;80.20;25.07;;;0.80;99.90;;;;;;5055516;28;20093;-19
2023/03/10 07:42:33;;;;;;;79.80;26.50;;;0.20;99.90;;;;;;5036598;28;20123;-19
2023/03/10 07:44:58;;;;;;;73.27;24.47;;;0.00;99.90;;;;;;5054277;28;20128;-19
2023/03/10 07:47:24;;;;;;;62.30;24.53;;;0.40;99.90;;;;;;5055643;28;20098;-20
2023/03/10 07:49:50;;;;;;;94.50;29.73;;;0.00;99.90;;;;;;5055100;28;20470;-21
2023/03/10 07:52:17;;;;;;;86.07;27.57;;;1.20;99.90;;;;;;5055535;28;20137;-21
2023/03/10 07:54:43;;;;;;;74.70;24.77;;;1.00;99.90;;;;;;5055206;28;20044;-21
2023/03/10 07:57:10;;;;;;;82.33;28.17;;;0.00;99.90;;;;;;5055992;28;20480;-22
2023/03/10 07:59:36;;;;;;;84.00;29.10;;;0.10;99.90;;;;;;5055154;28;20053;-22
2023/03/10 08:02:02;;;;;;;58.63;25.23;;;1.00;99.90;;;;;;5055377;28;20124;-23
2023/03/10 08:04:28;;;;;;;63.73;24.70;;;0.20;99.90;;;;;;5054138;28;20525;-24
2023/03/10 08:06:54;;;;;;;77.27;29.40;;;0.70;99.90;;;;;;5055780;28;20124;-24
2023/03/10 08:09:20;;;;;;;83.07;28.93;;;1.00;99.90;;;;;;5054849;28;20517;-24
2023/03/10 08:11:45;;;;;;;84.93;30.23;;;0.80;99.90;;;;;;5054982;28;20387;-24
2023/03/10 08:14:11;;;;;;;82.63;31.07;;;0.50;99.90;;;;;;5054794;28;20098;-24
2023/03/10 08:16:38;;;;;;;78.17;28.57;;;0.10;99.90;;;;;;5053529;28;20045;-24
2023/03/10 08:19:03;;;;;;;66.93;25.03;;;0.70;99.90;;;;;;5054313;28;20057;-25
2023/03/10 08:21:29;;;;;;;79.73;26.90;;;0.60;99.90;;;;;;5036868;28;20055;-25
2023/03/10 08:23:55;;;;;;;75.00;27.07;;;0.80;99.90;;;;;;5054542;28;20049;-27
2023/03/10 08:26:21;;;;;;;68.83;26.20;;;0.20;99.90;;;;;;5054235;28;20049;-28
2023/03/10 08:28:47;;;;;;;52.60;22.43;;;0.70;99.90;;;;;;5054452;28;20084;-29
2023/03/10 08:31:16;;;;;;;54.40;22.23;;;0.10;99.90;;;;;;5037646;28;20072;-29
2023/03/10 08:33:43;;;;;;;61.93;26.07;;;0.00;99.90;;;;;;5053411;28;20052;-29
2023/03/10 08:36:19;;;;;;;63.40;26.17;;;0.10;99.90;;;;;;5054231;28;20048;-29
2023/03/10 08:38:45;;;;;;;72.63;26.30;;;0.90;99.90;;;;;;5053125;28;20056;-29
2023/03/10 08:41:21;;;;;;;61.03;25.80;;;0.20;99.90;;;;;;5055017;28;20052;-29
2023/03/10 08:43:49;;;;;;;68.30;27.77;;;1.10;99.90;;;;;;5054195;28;20045;-29
2023/03/10 08:46:16;;;;;;;73.03;28.80;;;0.30;99.90;;;;;;5052964;28;20041;-29
2023/03/10 08:48:42;;;;;;;48.90;20.50;;;0.20;99.90;;;;;;5053865;28;20126;-28
2023/03/10 08:51:08;;;;;;;64.13;26.43;;;0.20;99.90;;;;;;5053770;28;20487;-29
2023/03/10 08:53:36;;;;;;;59.70;25.03;;;1.00;99.90;;;;;;5054289;28;20609;-28
2023/03/10 08:56:03;;;;;;;71.40;29.77;;;0.80;99.90;;;;;;5054016;28;20045;-29
2023/03/10 08:58:28;;;;;;;43.80;20.83;;;0.40;99.90;;;;;;5053837;28;20486;-29
2023/03/10 09:00:54;;;;;;;60.33;26.07;;;1.00;99.90;;;;;;5053298;28;20049;-29
2023/03/10 09:03:20;;;;;;;57.87;25.73;;;1.00;99.90;;;;;;5053862;28;20052;-29
2023/03/10 09:05:46;;;;;;;63.97;26.93;;;0.20;99.90;;;;;;5052612;28;20466;-29
2023/03/10 09:08:12;;;;;;;72.73;30.20;;;0.40;99.90;;;;;;5053723;28;20044;-28
2023/03/10 09:10:40;;;;;;;72.37;29.07;;;0.40;99.90;;;;;;5053811;28;20076;-28
2023/03/10 09:13:06;;;;;;;62.20;26.20;;;1.10;99.90;;;;;;5053791;28;20155;-28
2023/03/10 09:15:33;;;;;;;72.93;29.27;;;0.40;99.90;;;;;;5052395;28;20125;-28
2023/03/10 09:18:02;;;;;;;57.47;25.63;;;0.70;99.90;;;;;;5053444;28;20515;-28
2023/03/10 09:20:28;;;;;;;53.83;22.93;;;0.40;99.90;;;;;;5035761;28;20110;-28
2023/03/10 09:22:55;;;;;;;51.20;23.40;;;0.40;99.90;;;;;;5052530;28;20045;-28
2023/03/10 09:25:21;;;;;;;47.33;21.47;;;1.00;99.90;;;;;;5053651;28;20041;-28
2023/03/10 09:27:48;;;;;;;46.87;22.43;;;0.90;99.90;;;;;;5054439;28;20071;-28
2023/03/10 09:30:14;;;;;;;54.53;24.13;;;1.20;99.90;;;;;;5054413;28;20064;-29
2023/03/10 09:32:40;;;;;;;61.47;26.17;;;1.10;99.90;;;;;;5053590;28;20051;-30
2023/03/10 09:35:07;;;;;;;41.67;19.43;;;1.20;99.90;;;;;;5053394;28;20045;-32
2023/03/10 09:37:33;;;;;;;46.70;20.27;;;0.80;99.90;;;;;;5052572;28;20053;-33
2023/03/10 09:39:59;;;;;;;61.27;22.43;;;0.50;99.90;;;;;;5053432;28;20041;-33
2023/03/10 09:42:38;;;;;;;43.70;19.60;;;1.00;99.90;;;;;;5051948;28;20048;-32
2023/03/10 09:45:07;;;;;;;51.27;22.20;;;0.90;99.90;;;;;;5052836;28;20041;-33
2023/03/10 09:47:57;;;;;;;44.43;18.23;;;0.70;99.90;;;;;;5052260;28;20391;-31
2023/03/10 09:50:37;;;;;;;40.17;19.00;;;0.40;99.90;;;;;;5053064;28;20101;-30
2023/03/10 09:53:46;;;;;;;31.50;16.40;;;0.50;99.90;;;;;;5053479;28;20107;-29
2023/03/10 09:56:17;;;;;;;53.07;23.47;;;0.60;99.90;;;;;;5053667;28;20056;-28
2023/03/10 09:59:12;;;;;;;36.30;18.73;;;0.70;99.90;;;;;;5053958;28;20446;-29
2023/03/10 10:01:43;;;;;;;41.17;20.03;;;0.90;99.90;;;;;;5053979;28;20045;-26
2023/03/10 10:04:16;;;;;;;40.13;17.10;;;0.60;99.90;;;;;;5053611;28;20045;-25
2023/03/10 10:06:46;;;;;;;57.23;25.10;;;0.80;99.90;;;;;;5057550;28;20448;-25
2023/03/10 10:09:41;;;;;;;38.47;17.97;;;0.50;99.90;;;;;;5057146;28;20048;-24
2023/03/10 10:12:12;;;;;;;52.13;22.83;;;1.00;99.90;;;;;;5057774;28;20041;-24
2023/03/10 10:14:38;;;;;;;44.20;21.73;;;0.80;99.90;;;;;;5057020;28;20040;-25
2023/03/10 10:17:21;;;;;;;50.73;23.10;;;1.10;99.90;;;;;;5057093;28;20119;-25
2023/03/10 10:19:48;;;;;;;48.10;21.23;;;1.00;99.90;;;;;;5057093;28;20463;-26
2023/03/10 10:22:22;;;;;;;51.80;24.87;;;0.50;99.90;;;;;;5056942;28;20056;-25
2023/03/10 10:25:06;;;;;;;63.80;26.53;;;0.40;99.90;;;;;;5056077;28;20056;-26
2023/03/10 10:27:33;;;;;;;54.87;24.23;;;1.00;99.90;;;;;;5039302;28;20040;-28
2023/03/10 10:30:39;;;;;;;59.67;28.23;;;0.70;99.90;;;;;;5056832;28;20041;-27
2023/03/10 10:33:11;;;;;;;64.17;27.00;;;1.20;99.90;;;;;;5057352;28;20445;-27
2023/03/10 10:35:59;;;;;;;70.20;28.70;;;0.40;99.90;;;;;;5056693;28;20041;-28
2023/03/10 10:38:29;;;;;;;58.73;25.97;;;0.50;99.90;;;;;;5055838;28;20052;-28
2023/03/10 10:41:15;;;;;;;61.80;25.73;;;1.00;99.90;;;;;;5056657;28;20049;-27
2023/03/10 10:43:43;;;;;;;47.93;21.63;;;1.10;99.90;;;;;;5055768;28;20146;-27
2023/03/10 10:46:10;;;;;;;47.93;22.63;;;0.50;99.90;;;;;;5056163;28;20041;-27
2023/03/10 10:48:45;;;;;;;58.37;25.30;;;1.00;99.90;;;;;;5056501;28;20053;-28
2023/03/10 10:51:27;;;;;;;56.53;23.97;;;1.10;99.90;;;;;;5056770;28;20475;-27
2023/03/10 10:53:54;;;;;;;66.33;29.07;;;1.00;99.90;;;;;;5056327;28;20045;-27
2023/03/10 10:56:22;;;;;;;53.80;24.00;;;1.00;99.90;;;;;;5056337;28;20044;-26
2023/03/10 10:59:17;;;;;;;42.80;19.67;;;1.10;99.90;;;;;;5057168;28;20066;-27
2023/03/10 11:01:54;;;;;;;56.43;24.40;;;0.90;99.90;;;;;;5038732;28;20126;-27
2023/03/10 11:04:23;;;;;;;29.83;16.10;;;0.50;99.90;;;;;;5055404;28;20175;-27
2023/03/10 11:06:51;;;;;;;57.80;24.47;;;0.50;99.90;;;;;;5054996;28;20045;-25
2023/03/10 11:09:19;;;;;;;55.63;25.97;;;1.00;99.90;;;;;;5055989;28;20051;-24
2023/03/10 11:12:08;;;;;;;54.10;22.73;;;0.80;99.90;;;;;;5056018;28;20049;-24
2023/03/10 11:14:57;;;;;;;47.97;22.27;;;0.60;99.90;;;;;;5055937;28;20044;-23
2023/03/10 11:17:32;;;;;;;61.83;25.17;;;0.30;99.90;;;;;;5055490;28;20121;-22
2023/03/10 11:20:30;;;;;;;53.73;24.73;;;0.40;99.90;;;;;;5055878;28;20052;-21
2023/03/10 11:23:27;;;;;;;57.60;23.93;;;0.20;99.90;;;;;;5054388;28;20384;-21
2023/03/10 11:26:23;;;;;;;47.40;21.90;;;0.70;99.90;;;;;;5054670;28;20106;-21
2023/03/10 11:28:55;;;;;;;53.03;23.43;;;0.30;99.90;;;;;;5054815;28;20080;-21
2023/03/10 11:31:38;;;;;;;55.63;23.77;;;0.80;99.90;;;;;;5055688;28;20131;-22
2023/03/10 11:34:21;;;;;;;54.67;24.40;;;0.80;99.90;;;;;;5054717;28;20414;-22
2023/03/10 11:36:50;;;;;;;59.65;26.15;;;0.20;99.90;;;;;;5056462;28;20391;-22
2023/03/10 11:39:28;;;;;;;69.67;31.63;;;0.20;99.90;;;;;;5055111;28;20526;-22
2023/03/10 11:42:09;;;;;;;77.93;31.37;;;0.30;99.90;;;;;;5055464;28;20121;-23
2023/03/10 11:44:51;;;;;;;66.00;27.47;;;0.60;99.90;;;;;;5055687;28;20475;-23
2023/03/10 11:47:48;;;;;;;58.77;26.37;;;0.40;99.90;;;;;;5054401;28;20053;-23
2023/03/10 11:50:30;;;;;;;52.00;25.03;;;1.00;99.90;;;;;;5054549;28;20045;-23
2023/03/10 11:53:14;;;;;;;63.77;28.20;;;1.20;99.90;;;;;;5055170;28;20049;-24
2023/03/10 11:56:01;;;;;;;76.77;31.97;;;0.70;99.90;;;;;;5055901;28;20380;-24
2023/03/10 11:58:56;;;;;;;82.50;33.87;;;1.20;99.90;;;;;;5052852;28;20060;-24
2023/03/10 12:01:33;;;;;;;83.60;33.93;;;0.90;99.90;;;;;;5052985;28;20044;-24
2023/03/10 12:04:20;;;;;;;68.63;30.00;;;0.80;99.90;;;;;;5036248;28;20048;-24
2023/03/10 12:06:53;;;;;;;59.83;26.70;;;1.50;99.90;;;;;;5052528;28;20380;-24
2023/03/10 12:09:46;;;;;;;69.43;31.05;;;1.50;99.90;;;;;;5019691;28;20056;-25
2023/03/10 12:12:17;;;;;;;69.60;32.00;;;0.90;99.90;;;;;;5019724;28;20072;-24
2023/03/10 12:14:45;;;;;;;77.33;32.50;;;1.50;99.90;;;;;;5019500;28;20045;-24
2023/03/10 12:17:13;;;;;;;69.43;29.73;;;0.80;99.90;;;;;;5052378;28;20581;-25
2023/03/10 12:20:11;;;;;;;75.27;32.50;;;0.90;99.90;;;;;;5003343;28;20056;-26
2023/03/10 12:22:40;;;;;;;74.93;31.27;;;1.10;99.90;;;;;;5035917;28;20053;-26
2023/03/10 12:25:27;;;;;;;78.37;31.63;;;1.60;99.90;;;;;;5052593;28;20132;-25
2023/03/10 12:28:14;;;;;;;50.70;23.53;;;1.20;99.90;;;;;;5051926;28;20138;-25
2023/03/10 12:30:58;;;;;;;50.37;23.03;;;0.90;99.90;;;;;;5055105;28;20049;-25
2023/03/10 12:33:32;;;;;;;77.77;31.37;;;0.90;99.90;;;;;;5054453;28;20075;-24
2023/03/10 12:36:15;;;;;;;79.90;30.30;;;1.10;99.90;;;;;;5054385;28;20109;-25
2023/03/10 12:38:45;;;;;;;75.17;30.47;;;1.50;99.90;;;;;;5054505;28;20048;-24
2023/03/10 12:41:32;;;;;;;39.93;18.93;;;1.40;99.90;;;;;;5037210;28;20783;-24
2023/03/10 12:44:17;;;;;;;58.97;25.40;;;1.00;99.90;;;;;;5052737;28;20402;-24
2023/03/10 12:46:57;;;;;;;75.97;29.80;;;0.80;99.90;;;;;;5053393;28;20552;-24
2023/03/10 12:49:42;;;;;;;79.93;31.30;;;1.20;99.90;;;;;;5053396;28;20045;-25
2023/03/10 12:52:30;;;;;;;63.53;28.87;;;1.00;99.90;;;;;;5056508;28;20406;-25